CPX797 Details

Departure: Miami International Airport (KMIA)
Arrival: Arturo Merino Benitez International Airport (SCEL) at N/A
Route: EONNS2 EONNS A509 URSUS UA301 UCA UG430 SIA UB510 COLBY UM795 ILTUR UM795 BOKAN UM795 LOBOT UM795 KUSKU UM795 PUPMI UM795 JCL UL302 TOY UV208 SIMOK SIMOK2C
Notes:


Current Weather Information
KMIA 231253Z 05004KT 10SM FEW009 FEW020 SCT250 28/24 A3000 RMK AO2 SLP158 T02780239
SCEL 231300Z VRB02KT CAVOK 18/03 Q1017 NOSIG